createdAt,value
2022-10-17T00:01:15.526Z,18.49
2022-10-17T00:03:43.991Z,18.47
2022-10-17T00:06:16.017Z,18.44
2022-10-17T00:08:45.596Z,18.43
2022-10-17T00:11:20.638Z,18.40
2022-10-17T00:13:51.190Z,18.38
2022-10-17T00:16:26.224Z,18.34
2022-10-17T00:18:55.386Z,18.33
2022-10-17T00:21:25.456Z,18.30
2022-10-17T00:23:55.769Z,18.29
2022-10-17T00:26:25.721Z,18.28
2022-10-17T00:28:54.972Z,18.26
2022-10-17T00:31:25.239Z,18.23
2022-10-17T00:33:54.364Z,18.20
2022-10-17T00:36:25.607Z,18.18
2022-10-17T00:38:56.765Z,18.15
2022-10-17T00:41:30.041Z,18.12
2022-10-17T00:44:01.444Z,18.11
2022-10-17T00:46:32.858Z,18.09
2022-10-17T00:49:06.761Z,18.08
2022-10-17T00:51:41.187Z,18.07
2022-10-17T00:54:11.069Z,18.06
2022-10-17T00:56:40.941Z,18.03
2022-10-17T00:59:12.331Z,18.01
2022-10-17T01:01:42.706Z,18.01
2022-10-17T01:04:11.473Z,17.99
2022-10-17T01:06:39.876Z,17.99
2022-10-17T01:09:08.277Z,17.97
2022-10-17T01:11:46.374Z,17.95
2022-10-17T01:14:25.235Z,17.93
2022-10-17T01:17:04.262Z,17.93
2022-10-17T01:20:04.097Z,17.89
2022-10-17T01:22:42.212Z,17.88
2022-10-17T01:25:30.509Z,17.85
2022-10-17T01:28:19.960Z,17.85
2022-10-17T01:31:07.785Z,17.83
2022-10-17T01:33:56.122Z,17.82
2022-10-17T01:36:38.748Z,17.82
2022-10-17T01:39:18.428Z,17.81
2022-10-17T01:41:53.982Z,17.81
2022-10-17T01:44:30.772Z,17.79
2022-10-17T01:47:06.699Z,17.76
2022-10-17T01:49:38.920Z,17.75
2022-10-17T01:52:13.659Z,17.75
2022-10-17T01:54:46.755Z,17.71
2022-10-17T01:57:31.116Z,17.66
2022-10-17T02:00:00.950Z,17.65
2022-10-17T02:02:32.240Z,17.63
2022-10-17T02:05:03.069Z,17.62
2022-10-17T02:07:31.484Z,17.60
2022-10-17T02:09:59.882Z,17.58
2022-10-17T02:12:44.577Z,17.53
2022-10-17T02:15:51.163Z,17.47
2022-10-17T02:18:45.613Z,17.46
2022-10-17T02:21:25.734Z,17.43
2022-10-17T02:23:59.231Z,17.43
2022-10-17T02:26:33.811Z,17.41
2022-10-17T02:29:11.245Z,17.37
2022-10-17T02:31:46.170Z,17.37
2022-10-17T02:34:22.095Z,17.36
2022-10-17T02:36:56.945Z,17.37
2022-10-17T02:39:28.462Z,17.39
2022-10-17T02:42:00.200Z,17.38
2022-10-17T02:44:30.136Z,17.38
2022-10-17T02:47:06.525Z,17.37
2022-10-17T02:49:40.950Z,17.37
2022-10-17T02:52:14.264Z,17.36
2022-10-17T02:54:48.210Z,17.36
2022-10-17T02:57:23.557Z,17.35
2022-10-17T02:59:52.510Z,17.34
2022-10-17T03:02:20.884Z,17.33
2022-10-17T03:04:50.616Z,17.32
2022-10-17T03:07:19.043Z,17.31
2022-10-17T03:09:47.393Z,17.30
2022-10-17T03:12:15.725Z,17.31
2022-10-17T03:14:44.056Z,17.31
2022-10-17T03:17:12.396Z,17.32
2022-10-17T03:19:40.771Z,17.32
2022-10-17T03:22:10.955Z,17.34
2022-10-17T03:24:39.251Z,17.34
2022-10-17T03:27:07.598Z,17.34
2022-10-17T03:29:35.914Z,17.35
2022-10-17T03:32:04.319Z,17.36
2022-10-17T03:34:32.720Z,17.36
2022-10-17T03:37:01.108Z,17.37
2022-10-17T03:39:30.943Z,17.39
2022-10-17T03:41:59.419Z,17.39
2022-10-17T03:44:27.746Z,17.41
2022-10-17T03:46:56.067Z,17.41
2022-10-17T03:49:24.451Z,17.41
2022-10-17T03:51:52.852Z,17.40
2022-10-17T03:54:21.200Z,17.39
2022-10-17T03:56:50.930Z,17.37
2022-10-17T03:59:19.428Z,17.37
2022-10-17T04:01:48.113Z,17.36
2022-10-17T04:04:16.532Z,17.34
2022-10-17T04:06:44.880Z,17.32
2022-10-17T04:09:13.230Z,17.30
2022-10-17T04:11:41.583Z,17.28
2022-10-17T04:14:11.811Z,17.26
2022-10-17T04:16:40.776Z,17.23
2022-10-17T04:19:09.133Z,17.22
2022-10-17T04:21:37.910Z,17.21
2022-10-17T04:24:07.159Z,17.19
2022-10-17T04:26:35.533Z,17.18
2022-10-17T04:29:03.882Z,17.17
2022-10-17T04:31:33.665Z,17.14
2022-10-17T04:34:02.057Z,17.14
2022-10-17T04:36:30.417Z,17.13
2022-10-17T04:38:58.792Z,17.11
2022-10-17T04:41:27.140Z,17.10
2022-10-17T04:43:55.470Z,17.08
2022-10-17T04:46:24.056Z,17.06
2022-10-17T04:48:55.136Z,17.05
2022-10-17T04:51:25.936Z,17.04
2022-10-17T04:53:55.056Z,17.04
2022-10-17T04:56:25.800Z,17.01
2022-10-17T04:58:54.446Z,17.01
2022-10-17T05:01:24.836Z,17.01
2022-10-17T05:03:56.032Z,16.99
2022-10-17T05:06:27.994Z,16.99
2022-10-17T05:08:57.519Z,16.98
2022-10-17T05:11:28.598Z,16.97
2022-10-17T05:13:59.253Z,16.96
2022-10-17T05:16:29.607Z,16.97
2022-10-17T05:19:00.179Z,16.97
2022-10-17T05:21:30.490Z,16.97
2022-10-17T05:23:59.227Z,16.97
2022-10-17T05:26:27.933Z,16.98
2022-10-17T05:28:56.327Z,16.98
2022-10-17T05:31:24.816Z,16.99
2022-10-17T05:33:53.181Z,16.99
2022-10-17T05:36:22.968Z,16.99
2022-10-17T05:38:51.993Z,17.01
2022-10-17T05:41:21.270Z,17.03
2022-10-17T05:43:50.379Z,17.04
2022-10-17T05:46:19.029Z,17.06
2022-10-17T05:48:47.502Z,17.09
2022-10-17T05:51:16.047Z,17.12
2022-10-17T05:53:45.797Z,17.15
2022-10-17T05:56:14.897Z,17.20
2022-10-17T05:58:50.231Z,17.24
2022-10-17T06:01:20.319Z,17.27
2022-10-17T06:03:49.063Z,17.32
2022-10-17T06:06:19.825Z,17.36
2022-10-17T06:08:49.570Z,17.41
2022-10-17T06:11:17.950Z,17.46
2022-10-17T06:13:46.310Z,17.50
2022-10-17T06:16:14.709Z,17.54
2022-10-17T06:18:43.150Z,17.59
2022-10-17T06:21:13.084Z,17.63
2022-10-17T06:23:41.556Z,17.68
2022-10-17T06:26:11.582Z,17.72
2022-10-17T06:28:40.099Z,17.77
2022-10-17T06:31:10.314Z,17.81
2022-10-17T06:33:39.098Z,17.86
2022-10-17T06:36:11.261Z,17.90
2022-10-17T06:38:40.073Z,17.95
2022-10-17T06:41:13.778Z,17.97
2022-10-17T06:43:46.288Z,18.01
2022-10-17T06:46:15.805Z,18.06
2022-10-17T06:48:44.172Z,18.11
2022-10-17T06:51:13.126Z,18.17
2022-10-17T06:53:42.312Z,18.22
2022-10-17T06:56:12.888Z,18.28
2022-10-17T06:58:42.590Z,18.36
2022-10-17T07:01:13.180Z,18.43
2022-10-17T07:03:43.680Z,18.53
2022-10-17T07:06:12.406Z,18.61
2022-10-17T07:08:44.724Z,18.68
2022-10-17T07:11:17.847Z,18.74
2022-10-17T07:13:46.660Z,18.82
2022-10-17T07:16:16.777Z,18.88
2022-10-17T07:18:47.061Z,18.98
2022-10-17T07:21:15.495Z,19.07
2022-10-17T07:23:43.899Z,19.14
2022-10-17T07:26:17.454Z,19.23
2022-10-17T07:28:47.974Z,19.32
2022-10-17T07:31:19.676Z,19.40
2022-10-17T07:33:48.134Z,19.49
2022-10-17T07:36:17.678Z,19.58
2022-10-17T07:38:46.201Z,19.68
2022-10-17T07:41:19.268Z,19.77
2022-10-17T07:43:50.591Z,19.88
2022-10-17T07:46:18.978Z,19.97
2022-10-17T07:48:47.459Z,20.08
2022-10-17T07:51:16.869Z,20.19
2022-10-17T07:53:48.704Z,20.28
2022-10-17T07:56:19.122Z,20.37
2022-10-17T07:58:48.383Z,20.46
2022-10-17T08:01:17.683Z,20.56
2022-10-17T08:03:47.217Z,20.67
2022-10-17T08:06:15.830Z,20.76
2022-10-17T08:08:45.248Z,20.84
2022-10-17T08:11:15.883Z,20.91
2022-10-17T08:13:45.757Z,20.99
2022-10-17T08:16:15.187Z,21.09
2022-10-17T08:18:44.501Z,21.16
2022-10-17T08:21:14.332Z,21.21
2022-10-17T08:23:43.064Z,21.30
2022-10-17T08:26:13.627Z,21.38
2022-10-17T08:28:42.602Z,21.46
2022-10-17T08:31:15.777Z,21.52
2022-10-17T08:33:44.283Z,21.60
2022-10-17T08:36:15.959Z,21.64
2022-10-17T08:38:48.002Z,21.73
2022-10-17T08:41:38.496Z,21.80
2022-10-17T08:44:19.318Z,21.90
2022-10-17T08:46:53.512Z,22.01
2022-10-17T08:49:33.798Z,22.09
2022-10-17T08:52:12.307Z,22.18
2022-10-17T08:54:46.227Z,22.27
2022-10-17T08:57:16.365Z,22.39
2022-10-17T08:59:46.895Z,22.46
2022-10-17T09:02:40.377Z,22.51
2022-10-17T09:05:40.343Z,22.61
2022-10-17T09:08:25.845Z,22.69
2022-10-17T09:10:59.498Z,22.78
2022-10-17T09:13:49.523Z,22.84
2022-10-17T09:16:45.719Z,22.90
2022-10-17T09:19:24.385Z,22.98
2022-10-17T09:22:00.041Z,23.08
2022-10-17T09:24:47.443Z,23.16
2022-10-17T09:27:24.997Z,23.24
2022-10-17T09:30:17.181Z,23.30
2022-10-17T09:33:00.758Z,23.41
2022-10-17T09:35:31.424Z,23.47
2022-10-17T09:38:00.219Z,23.54
2022-10-17T09:40:35.437Z,23.59
2022-10-17T09:43:08.836Z,23.66
2022-10-17T09:45:47.541Z,23.72
2022-10-17T09:48:26.522Z,23.80
2022-10-17T09:51:14.694Z,23.87
2022-10-17T09:53:51.488Z,23.94
2022-10-17T09:56:21.311Z,24.00
2022-10-17T09:58:54.529Z,24.05
2022-10-17T10:01:26.141Z,24.11
2022-10-17T10:04:11.180Z,24.16
2022-10-17T10:06:42.503Z,24.26
2022-10-17T10:09:31.698Z,24.31
2022-10-17T10:12:04.583Z,24.41
2022-10-17T10:14:35.556Z,24.49
2022-10-17T10:17:06.219Z,24.61
2022-10-17T10:19:36.806Z,24.71
2022-10-17T10:22:20.078Z,24.80
2022-10-17T10:25:07.572Z,24.89
2022-10-17T10:27:36.802Z,24.98
2022-10-17T10:30:06.492Z,25.20
2022-10-17T10:32:38.189Z,25.53
2022-10-17T10:35:18.999Z,25.89
2022-10-17T10:37:52.902Z,26.33
2022-10-17T10:40:25.811Z,26.74
2022-10-17T10:43:02.526Z,27.11
2022-10-17T10:45:48.675Z,27.50
2022-10-17T10:48:23.545Z,27.91
2022-10-17T10:50:57.432Z,28.28
2022-10-17T10:53:48.317Z,28.67
2022-10-17T10:56:21.741Z,29.04
2022-10-17T10:58:57.045Z,29.36
2022-10-17T11:01:34.218Z,29.68
2022-10-17T11:04:29.890Z,30.04
2022-10-17T11:07:06.700Z,30.41
2022-10-17T11:09:50.424Z,30.69
2022-10-17T11:12:26.125Z,30.93
2022-10-17T11:15:02.543Z,31.12
2022-10-17T11:17:40.131Z,31.34
2022-10-17T11:20:20.959Z,31.59
2022-10-17T11:22:53.415Z,31.86
2022-10-17T11:25:35.077Z,32.10
2022-10-17T11:28:05.463Z,32.38
2022-10-17T11:30:47.125Z,32.61
2022-10-17T11:33:25.842Z,32.88
2022-10-17T11:35:59.112Z,33.05
2022-10-17T11:38:52.591Z,33.10
2022-10-17T11:41:31.104Z,33.23
2022-10-17T11:44:06.815Z,33.34
2022-10-17T11:46:37.511Z,33.44
2022-10-17T11:49:19.831Z,33.48
2022-10-17T11:52:02.068Z,33.57
2022-10-17T11:54:39.293Z,33.64
2022-10-17T11:57:43.291Z,33.66
2022-10-17T12:00:35.762Z,33.83
2022-10-17T12:03:24.087Z,34.06
2022-10-17T12:05:58.900Z,34.37
2022-10-17T12:08:37.644Z,34.68
2022-10-17T12:11:16.283Z,34.99
2022-10-17T12:13:56.348Z,35.21
2022-10-17T12:16:51.673Z,35.39
2022-10-17T12:19:28.769Z,35.64
2022-10-17T12:22:14.367Z,35.81
2022-10-17T12:24:46.007Z,35.91
2022-10-17T12:27:46.143Z,35.99
2022-10-17T12:30:25.953Z,36.13
2022-10-17T12:33:08.457Z,36.24
2022-10-17T12:35:39.133Z,36.49
2022-10-17T12:38:26.595Z,36.63
2022-10-17T12:41:00.675Z,36.65
2022-10-17T12:43:48.441Z,36.63
2022-10-17T12:47:00.143Z,36.71
2022-10-17T12:49:53.089Z,36.77
2022-10-17T12:52:48.653Z,36.89
2022-10-17T12:55:19.709Z,36.96
2022-10-17T12:57:58.663Z,37.12
2022-10-17T13:00:36.040Z,37.41
2022-10-17T13:03:14.191Z,37.68
2022-10-17T13:05:49.900Z,37.90
2022-10-17T13:08:25.956Z,38.11
2022-10-17T13:10:56.288Z,38.23
2022-10-17T13:13:35.691Z,38.31
2022-10-17T13:16:04.344Z,38.30
2022-10-17T13:18:34.274Z,37.99
2022-10-17T13:21:05.410Z,37.31
2022-10-17T13:23:36.768Z,36.49
2022-10-17T13:26:25.411Z,35.58
2022-10-17T13:29:05.845Z,34.75
2022-10-17T13:31:37.286Z,34.04
2022-10-17T13:34:16.849Z,33.38
2022-10-17T13:36:49.028Z,32.76
2022-10-17T13:39:32.363Z,32.24
2022-10-17T13:42:24.083Z,31.74
2022-10-17T13:44:53.160Z,31.37
2022-10-17T13:47:24.853Z,31.03
2022-10-17T13:49:55.931Z,30.74
2022-10-17T13:52:27.856Z,30.47
2022-10-17T13:55:08.202Z,30.23
2022-10-17T13:57:36.714Z,30.02
2022-10-17T14:00:16.618Z,29.81
2022-10-17T14:02:45.107Z,29.63
2022-10-17T14:05:19.460Z,29.47
2022-10-17T14:08:12.664Z,29.35
2022-10-17T14:10:44.474Z,29.19
2022-10-17T14:13:23.885Z,29.06
2022-10-17T14:15:53.991Z,28.98
2022-10-17T14:18:34.836Z,28.87
2022-10-17T14:24:16.786Z,28.62
2022-10-17T14:26:51.052Z,28.55
2022-10-17T14:29:25.965Z,28.47
2022-10-17T14:32:02.830Z,28.41
2022-10-17T14:34:35.266Z,28.35
2022-10-17T14:37:11.528Z,28.27
2022-10-17T14:39:40.292Z,28.22
2022-10-17T14:42:17.397Z,28.15
2022-10-17T14:44:51.887Z,28.06
2022-10-17T14:50:25.945Z,27.91
2022-10-17T14:53:06.339Z,27.86
2022-10-17T14:55:36.861Z,27.80
2022-10-17T14:58:18.201Z,27.70
2022-10-17T15:00:46.627Z,27.68
2022-10-17T15:03:15.099Z,27.62
2022-10-17T15:05:43.840Z,27.55
2022-10-17T15:08:16.010Z,27.48
2022-10-17T15:10:45.488Z,27.43
2022-10-17T15:13:32.369Z,27.37
2022-10-17T15:16:03.131Z,27.29
2022-10-17T15:18:32.423Z,27.23
2022-10-17T15:21:05.405Z,27.15
2022-10-17T15:23:42.698Z,27.08
2022-10-17T15:26:17.992Z,27.00
2022-10-17T15:28:47.584Z,26.95
2022-10-17T15:31:19.333Z,26.88
2022-10-17T15:33:48.421Z,26.83
2022-10-17T15:36:26.634Z,26.71
2022-10-17T15:38:58.104Z,26.65
2022-10-17T15:41:28.885Z,26.58
2022-10-17T15:43:57.957Z,26.51
2022-10-17T15:46:28.911Z,26.42
2022-10-17T15:49:02.635Z,26.36
2022-10-17T15:51:31.123Z,26.28
2022-10-17T15:54:01.689Z,26.19
2022-10-17T15:56:35.985Z,26.08
2022-10-17T15:59:05.690Z,26.02
2022-10-17T16:01:35.523Z,25.93
2022-10-17T16:04:04.260Z,25.84
2022-10-17T16:06:32.689Z,25.76
2022-10-17T16:09:02.505Z,25.68
2022-10-17T16:11:34.706Z,25.60
2022-10-17T16:14:06.357Z,25.53
2022-10-17T16:16:35.334Z,25.46
2022-10-17T16:19:04.827Z,25.40
2022-10-17T16:21:36.017Z,25.32
2022-10-17T16:24:07.048Z,25.26
2022-10-17T16:26:35.505Z,25.19
2022-10-17T16:29:04.933Z,25.11
2022-10-17T16:31:36.470Z,25.06
2022-10-17T16:34:06.552Z,25.00
2022-10-17T16:36:34.980Z,24.95
2022-10-17T16:39:03.472Z,24.87
2022-10-17T16:41:35.750Z,24.80
2022-10-17T16:44:07.243Z,24.74
2022-10-17T16:46:38.480Z,24.68
2022-10-17T16:49:08.099Z,24.64
2022-10-17T16:51:36.958Z,24.59
2022-10-17T16:54:05.770Z,24.52
2022-10-17T16:56:35.517Z,24.47
2022-10-17T16:59:04.293Z,24.41
2022-10-17T17:01:32.970Z,24.36
2022-10-17T17:04:04.532Z,24.32
2022-10-17T17:06:33.587Z,24.26
2022-10-17T17:09:03.184Z,24.21
2022-10-17T17:11:32.894Z,24.15
2022-10-17T17:14:05.969Z,24.10
2022-10-17T17:16:36.169Z,24.06
2022-10-17T17:19:08.638Z,24.00
2022-10-17T17:21:39.470Z,23.97
2022-10-17T17:24:08.353Z,23.92
2022-10-17T17:26:37.802Z,23.87
2022-10-17T17:29:09.188Z,23.83
2022-10-17T17:31:40.366Z,23.80
2022-10-17T17:34:12.079Z,23.76
2022-10-17T17:36:44.769Z,23.71
2022-10-17T17:39:16.978Z,23.65
2022-10-17T17:41:46.912Z,23.62
2022-10-17T17:44:17.343Z,23.56
2022-10-17T17:46:48.217Z,23.54
2022-10-17T17:49:17.861Z,23.49
2022-10-17T17:51:50.035Z,23.46
2022-10-17T17:54:24.292Z,23.42
2022-10-17T17:56:53.739Z,23.38
2022-10-17T17:59:24.769Z,23.35
2022-10-17T18:01:53.787Z,23.31
2022-10-17T18:04:22.869Z,23.25
2022-10-17T18:06:52.036Z,23.22
2022-10-17T18:09:21.768Z,23.16
2022-10-17T18:11:50.905Z,23.13
2022-10-17T18:14:24.256Z,23.10
2022-10-17T18:16:58.786Z,23.05
2022-10-17T18:19:28.825Z,23.03
2022-10-17T18:21:58.553Z,23.00
2022-10-17T18:24:29.252Z,22.95
2022-10-17T18:27:00.423Z,22.92
2022-10-17T18:29:33.157Z,22.86
2022-10-17T18:32:05.147Z,22.83
2022-10-17T18:34:36.641Z,22.79
2022-10-17T18:37:07.665Z,22.77
2022-10-17T18:39:38.422Z,22.73
2022-10-17T18:42:12.055Z,22.69
2022-10-17T18:44:41.810Z,22.65
2022-10-17T18:47:14.605Z,22.60
2022-10-17T18:49:45.981Z,22.58
2022-10-17T18:52:16.159Z,22.52
2022-10-17T18:54:46.051Z,22.48
2022-10-17T18:57:16.604Z,22.47
2022-10-17T18:59:45.804Z,22.43
2022-10-17T19:02:19.429Z,22.41
2022-10-17T19:07:22.972Z,22.36
2022-10-17T19:09:52.427Z,22.31
2022-10-17T19:12:22.408Z,22.28
2022-10-17T19:14:53.157Z,22.25
2022-10-17T19:17:23.046Z,22.22
2022-10-17T19:19:53.732Z,22.20
2022-10-17T19:22:22.616Z,22.18
2022-10-17T19:24:54.932Z,22.15
2022-10-17T19:27:23.353Z,22.15
2022-10-17T19:29:52.168Z,22.14
2022-10-17T19:32:23.250Z,22.12
2022-10-17T19:34:52.207Z,22.10
2022-10-17T19:37:20.845Z,22.09
2022-10-17T19:39:50.477Z,22.08
2022-10-17T19:42:20.052Z,22.07
2022-10-17T19:44:50.384Z,22.04
2022-10-17T19:47:19.875Z,22.03
2022-10-17T19:49:50.201Z,22.01
2022-10-17T19:52:19.191Z,21.99
2022-10-17T19:54:50.993Z,21.98
2022-10-17T19:57:21.058Z,21.95
2022-10-17T19:59:53.636Z,21.93
2022-10-17T20:02:28.174Z,21.90
2022-10-17T20:05:17.590Z,21.89
2022-10-17T20:07:46.777Z,21.88
2022-10-17T20:10:18.605Z,21.85
2022-10-17T20:12:47.453Z,21.85
2022-10-17T20:15:16.647Z,21.83
2022-10-17T20:17:45.427Z,21.83
2022-10-17T20:20:15.289Z,21.81
2022-10-17T20:22:43.980Z,21.80
2022-10-17T20:25:12.918Z,21.78
2022-10-17T20:27:41.450Z,21.79
2022-10-17T20:30:13.860Z,21.76
2022-10-17T20:32:42.309Z,21.75
2022-10-17T20:35:11.421Z,21.71
2022-10-17T20:37:42.735Z,21.69
2022-10-17T20:43:00.942Z,21.67
2022-10-17T20:45:43.743Z,21.64
2022-10-17T20:48:18.079Z,21.62
2022-10-17T20:50:46.589Z,21.60
2022-10-17T20:53:35.997Z,21.57
2022-10-17T20:56:08.255Z,21.55
2022-10-17T20:58:37.018Z,21.55
2022-10-17T21:01:09.758Z,21.53
2022-10-17T21:03:42.302Z,21.51
2022-10-17T21:06:14.180Z,21.51
2022-10-17T21:08:44.853Z,21.49
2022-10-17T21:11:16.930Z,21.46
2022-10-17T21:13:46.278Z,21.45
2022-10-17T21:16:17.631Z,21.42
2022-10-17T21:18:46.754Z,21.41
2022-10-17T21:21:17.920Z,21.38
2022-10-17T21:23:49.947Z,21.34
2022-10-17T21:26:19.943Z,21.33
2022-10-17T21:28:49.952Z,21.30
2022-10-17T21:31:20.899Z,21.25
2022-10-17T21:33:52.419Z,21.23
2022-10-17T21:36:21.657Z,21.23
2022-10-17T21:38:54.880Z,21.21
2022-10-17T21:41:26.256Z,21.19
2022-10-17T21:43:56.342Z,21.18
2022-10-17T21:46:25.136Z,21.16
2022-10-17T21:48:53.982Z,21.15
2022-10-17T21:51:25.095Z,21.12
2022-10-17T21:53:57.803Z,21.09
2022-10-17T21:56:28.981Z,21.03
2022-10-17T21:58:58.281Z,21.01
2022-10-17T22:01:29.743Z,20.94
2022-10-17T22:04:00.542Z,20.89
2022-10-17T22:06:40.083Z,20.84
2022-10-17T22:09:14.642Z,20.78
2022-10-17T22:11:45.099Z,20.75
2022-10-17T22:14:16.388Z,20.71
2022-10-17T22:16:46.458Z,20.68
2022-10-17T22:19:18.266Z,20.65
2022-10-17T22:21:46.958Z,20.63
2022-10-17T22:24:19.342Z,20.58
2022-10-17T22:26:48.538Z,20.56
2022-10-17T22:29:17.029Z,20.52
2022-10-17T22:31:45.917Z,20.51
2022-10-17T22:34:16.926Z,20.47
2022-10-17T22:36:47.702Z,20.46
2022-10-17T22:39:17.649Z,20.42
2022-10-17T22:41:46.045Z,20.41
2022-10-17T22:44:14.579Z,20.39
2022-10-17T22:46:42.947Z,20.36
2022-10-17T22:49:11.391Z,20.33
2022-10-17T22:51:39.738Z,20.32
2022-10-17T22:54:08.087Z,20.28
2022-10-17T22:56:37.884Z,20.26
2022-10-17T22:59:06.283Z,20.23
2022-10-17T23:01:34.718Z,20.23
2022-10-17T23:04:03.110Z,20.21
2022-10-17T23:06:31.537Z,20.19
2022-10-17T23:08:59.920Z,20.16
2022-10-17T23:11:28.437Z,20.14
2022-10-17T23:13:58.140Z,20.11
2022-10-17T23:16:26.644Z,20.09
2022-10-17T23:18:54.969Z,20.07
2022-10-17T23:21:23.900Z,20.04
2022-10-17T23:23:52.243Z,20.00
2022-10-17T23:26:20.618Z,19.96
2022-10-17T23:28:49.119Z,19.94
2022-10-17T23:31:21.322Z,19.88
2022-10-17T23:33:50.812Z,19.87
2022-10-17T23:36:21.552Z,19.83
2022-10-17T23:38:52.666Z,19.81
2022-10-17T23:41:23.422Z,19.76
2022-10-17T23:43:52.219Z,19.72
2022-10-17T23:46:21.958Z,19.69
2022-10-17T23:48:50.467Z,19.64
2022-10-17T23:51:18.892Z,19.59
2022-10-17T23:53:47.344Z,19.55
2022-10-17T23:56:16.121Z,19.51
2022-10-17T23:58:44.550Z,19.47
